Time;durP1;ratioP1;P1;durP2;ratioP2;P2;SDS_P1;SDS_P2;PMS_P1;PMS_P2;Temp;Humidity;BMP_temperature;BMP_pressure;BME280_temperature;BME280_humidity;BME280_pressure;Samples;Min_cycle;Max_cycle;Signal;HPM_P1;HPM_P2
2022/09/20 00:01:48;;;;;;;;;;;;;;;27.70;30.09;100597.81;5039884;28;1072;-29
2022/09/20 00:04:13;;;;;;;;;;;;;;;27.60;30.62;100598.06;5035843;28;1195;-30
2022/09/20 00:06:39;;;;;;;;;;;;;;;27.62;30.29;100591.47;5035711;28;2507;-34
2022/09/20 00:09:04;;;;;;;;;;;;;;;27.60;30.16;100589.97;5035464;28;1199;-30
2022/09/20 00:11:30;;;;;;;;;;;;;;;27.59;30.17;100585.59;5044025;28;1112;-30
2022/09/20 00:13:56;;;;;;;;;;;;;;;27.58;30.48;100586.63;5037614;28;1120;-31
2022/09/20 00:16:31;;;;;;;;;;;;;;;27.63;30.19;100581.47;5044136;28;2169;-30
2022/09/20 00:18:57;;;;;;;;;;;;;;;27.70;29.97;100584.28;5035570;28;1093;-30
2022/09/20 00:21:23;;;;;;;;;;;;;;;27.61;30.34;100578.16;5038502;28;1194;-29
2022/09/20 00:23:49;;;;;;;;;;;;;;;27.54;30.22;100574.53;5039973;28;1100;-29
2022/09/20 00:26:14;;;;;;;;;;;;;;;27.59;30.05;100572.91;5039299;28;1147;-31
2022/09/20 00:28:40;;;;;;;;;;;;;;;27.69;29.78;100567.25;5039679;28;1131;-29
2022/09/20 00:31:06;;;;;;;;;;;;;;;27.60;30.28;100568.34;5039238;28;1190;-32
2022/09/20 00:36:15;;;;;;;;;;;;;;;27.51;30.01;100560.38;5052243;28;2466;-34
2022/09/20 00:38:40;;;;;;;;;;;;;;;27.51;30.17;100571.16;5053307;28;1174;-29
2022/09/20 00:41:06;;;;;;;;;;;;;;;27.62;30.04;100560.91;5039125;28;1136;-30
2022/09/20 00:43:35;;;;;;;;;;;;;;;27.62;30.11;100555.50;5039499;28;1183;-28
2022/09/20 00:46:00;;;;;;;;;;;;;;;27.54;30.00;100551.06;5039460;28;1190;-31
2022/09/20 00:48:29;;;;;;;;;;;;;;;27.56;29.66;100551.69;5049258;28;1160;-30
2022/09/20 00:50:55;;;;;;;;;;;;;;;27.53;29.73;100545.84;5039018;28;1128;-29
2022/09/20 00:53:20;;;;;;;;;;;;;;;27.57;29.84;100542.56;5038627;28;1108;-32
2022/09/20 00:55:53;;;;;;;;;;;;;;;27.53;29.76;100541.25;5039382;28;1108;-31
2022/09/20 00:58:18;;;;;;;;;;;;;;;27.50;29.78;100549.75;5038941;28;1905;-33
2022/09/20 01:00:44;;;;;;;;;;;;;;;27.45;29.50;100544.06;5048791;28;1093;-31
2022/09/20 01:03:09;;;;;;;;;;;;;;;27.48;29.31;100539.13;5037803;28;1009;-31
2022/09/20 01:05:34;;;;;;;;;;;;;;;27.50;29.29;100534.38;5038592;28;1949;-31
2022/09/20 01:08:00;;;;;;;;;;;;;;;27.44;29.37;100537.84;5038362;28;1151;-30
2022/09/20 01:10:25;;;;;;;;;;;;;;;27.53;29.48;100533.16;5038378;28;1179;-32
2022/09/20 01:12:50;;;;;;;;;;;;;;;27.51;29.26;100541.44;5047226;28;891;-30
2022/09/20 01:15:16;;;;;;;;;;;;;;;27.49;29.45;100538.09;5048558;28;1149;-31
2022/09/20 01:17:43;;;;;;;;;;;;;;;27.54;29.28;100534.00;5038066;28;1897;-30
2022/09/20 01:20:12;;;;;;;;;;;;;;;27.60;29.32;100541.34;5037265;28;1140;-32
2022/09/20 01:22:37;;;;;;;;;;;;;;;27.55;29.21;100535.66;5037937;28;1147;-29
2022/09/20 01:25:07;;;;;;;;;;;;;;;27.58;29.20;100543.38;5051662;28;1219;-31
2022/09/20 01:27:37;;;;;;;;;;;;;;;27.51;29.64;100543.31;5038623;28;1174;-29
2022/09/20 01:30:07;;;;;;;;;;;;;;;27.58;29.21;100544.22;5036947;28;1196;-33
2022/09/20 01:32:51;;;;;;;;;;;;;;;27.55;29.49;100541.06;5035720;28;1156;-30
2022/09/20 01:35:16;;;;;;;;;;;;;;;27.57;29.63;100550.66;5039048;28;1830;-30
2022/09/20 01:37:45;;;;;;;;;;;;;;;27.60;29.49;100550.28;5045146;28;1910;-29
2022/09/20 01:40:12;;;;;;;;;;;;;;;27.58;29.15;100552.34;5037801;28;1195;-29
2022/09/20 01:42:38;;;;;;;;;;;;;;;27.60;29.18;100555.69;5036662;28;1121;-31
2022/09/20 01:45:06;;;;;;;;;;;;;;;27.65;29.07;100556.97;5036888;28;1167;-29
2022/09/20 01:47:37;;;;;;;;;;;;;;;27.60;29.57;100550.28;5040638;28;1195;-32
2022/09/20 01:50:18;;;;;;;;;;;;;;;27.55;29.39;100557.28;5041334;28;1203;-30
2022/09/20 01:52:52;;;;;;;;;;;;;;;27.59;29.33;100545.06;5038231;28;1167;-32
2022/09/20 01:55:24;;;;;;;;;;;;;;;27.48;29.41;100546.41;5037669;28;1453;-33
2022/09/20 01:57:58;;;;;;;;;;;;;;;27.24;29.62;100508.72;5036677;28;1953;-31
2022/09/20 02:00:37;;;;;;;;;;;;;;;27.46;29.26;100541.19;5044555;28;1131;-34
2022/09/20 02:03:11;;;;;;;;;;;;;;;27.45;29.20;100544.91;5036392;28;1187;-31
2022/09/20 02:05:56;;;;;;;;;;;;;;;27.43;29.49;100532.63;5037118;28;2277;-32
2022/09/20 02:08:22;;;;;;;;;;;;;;;27.47;28.95;100534.78;5018680;28;1160;-33
2022/09/20 02:11:06;;;;;;;;;;;;;;;27.47;29.07;100542.03;5037465;28;1069;-29
2022/09/20 02:13:38;;;;;;;;;;;;;;;27.45;29.16;100539.53;5067999;28;930;-31
2022/09/20 02:16:10;;;;;;;;;;;;;;;27.53;29.18;100538.56;5050154;28;1225;-31
2022/09/20 02:18:44;;;;;;;;;;;;;;;27.45;29.13;100525.16;5036128;28;1897;-29
2022/09/20 02:21:10;;;;;;;;;;;;;;;27.47;29.13;100533.94;5036787;28;1100;-29
2022/09/20 02:23:38;;;;;;;;;;;;;;;27.50;29.23;100530.84;5044612;28;1191;-30
2022/09/20 02:26:22;;;;;;;;;;;;;;;27.54;28.84;100536.69;5042975;28;1080;-30
2022/09/20 02:29:05;;;;;;;;;;;;;;;27.70;28.96;100535.66;5036965;28;1127;-31
2022/09/20 02:31:49;;;;;;;;;;;;;;;27.74;28.95;100542.34;5036298;28;1131;-30
2022/09/20 02:34:33;;;;;;;;;;;;;;;27.77;28.74;100541.13;5036093;28;1081;-31
2022/09/20 02:37:09;;;;;;;;;;;;;;;27.85;28.88;100547.25;5042261;28;1949;-28
2022/09/20 02:39:35;;;;;;;;;;;;;;;27.80;28.93;100552.38;5035447;28;1140;-28
2022/09/20 02:42:16;;;;;;;;;;;;;;;27.77;28.81;100549.22;5035266;28;1243;-29
2022/09/20 02:44:59;;;;;;;;;;;;;;;27.74;28.86;100555.88;5035250;28;1164;-28
2022/09/20 02:47:32;;;;;;;;;;;;;;;27.72;28.88;100549.81;5036877;28;1468;-29
2022/09/20 02:50:16;;;;;;;;;;;;;;;27.76;28.65;100551.09;5054588;28;988;-31
2022/09/20 02:52:53;;;;;;;;;;;;;;;27.74;29.06;100555.88;5036458;28;1112;-30
2022/09/20 02:55:31;;;;;;;;;;;;;;;27.73;28.69;100554.16;5035240;28;1267;-29
2022/09/20 02:57:58;;;;;;;;;;;;;;;27.79;29.17;100552.59;5036360;28;1886;-28
2022/09/20 03:00:24;;;;;;;;;;;;;;;27.81;28.58;100556.75;5039160;28;1116;-30
2022/09/20 03:03:10;;;;;;;;;;;;;;;27.80;28.74;100562.34;5034964;28;1117;-28
2022/09/20 03:05:41;;;;;;;;;;;;;;;27.81;29.03;100561.34;5026663;28;2180;-28
2022/09/20 03:08:30;;;;;;;;;;;;;;;27.77;29.15;100560.03;5043853;28;1433;-29
2022/09/20 03:11:14;;;;;;;;;;;;;;;27.48;31.84;100571.56;5028033;28;1421;-34
2022/09/20 03:13:57;;;;;;;;;;;;;;;27.37;31.52;100563.94;5051079;28;1136;-34
2022/09/20 03:16:41;;;;;;;;;;;;;;;27.36;32.29;100573.09;5035721;28;1906;-28
2022/09/20 03:19:25;;;;;;;;;;;;;;;27.46;32.34;100570.09;5036555;28;1495;-29
2022/09/20 03:21:53;;;;;;;;;;;;;;;27.36;33.75;100581.19;5036181;28;1191;-28
2022/09/20 03:24:24;;;;;;;;;;;;;;;27.47;33.30;100572.59;5049996;28;1219;-29
2022/09/20 03:27:04;;;;;;;;;;;;;;;27.46;34.07;100579.00;5036227;28;1072;-29
2022/09/20 03:29:38;;;;;;;;;;;;;;;27.38;34.45;100579.09;5035872;28;1179;-29
2022/09/20 03:32:18;;;;;;;;;;;;;;;27.41;34.21;100577.91;5034328;28;1164;-29
2022/09/20 03:34:56;;;;;;;;;;;;;;;27.41;34.46;100580.63;5048313;28;2420;-29
2022/09/20 03:37:41;;;;;;;;;;;;;;;27.44;34.17;100583.78;5037349;28;1918;-30
2022/09/20 03:40:25;;;;;;;;;;;;;;;26.96;31.30;100584.97;5035128;28;1205;-31
2022/09/20 03:42:51;;;;;;;;;;;;;;;26.75;30.58;100585.72;5035342;28;1137;-33
2022/09/20 03:45:16;;;;;;;;;;;;;;;26.48;30.23;100594.25;5035879;28;1183;-32
2022/09/20 03:47:44;;;;;;;;;;;;;;;26.26;29.25;100595.91;5041973;28;1144;-31
2022/09/20 03:50:19;;;;;;;;;;;;;;;26.23;30.04;100589.03;5042890;28;1035;-29
2022/09/20 03:52:45;;;;;;;;;;;;;;;26.10;29.51;100596.88;5034401;28;1137;-29
2022/09/20 03:55:29;;;;;;;;;;;;;;;25.99;29.38;100600.84;5051312;28;1476;-32
2022/09/20 03:57:54;;;;;;;;;;;;;;;25.40;29.02;100602.97;5044278;28;1961;-30
2022/09/20 04:00:19;;;;;;;;;;;;;;;25.19;28.79;100605.22;5036380;28;1450;-32
2022/09/20 04:03:03;;;;;;;;;;;;;;;25.28;28.39;100607.88;5037287;28;1499;-32
2022/09/20 04:05:40;;;;;;;;;;;;;;;25.29;29.11;100609.59;5034863;28;2318;-31
2022/09/20 04:08:12;;;;;;;;;;;;;;;25.13;28.88;100603.25;5043405;28;1508;-32
2022/09/20 04:10:58;;;;;;;;;;;;;;;25.35;28.73;100605.34;5045174;28;994;-31
2022/09/20 04:13:27;;;;;;;;;;;;;;;25.29;28.62;100606.91;5044712;28;982;-30
2022/09/20 04:15:58;;;;;;;;;;;;;;;25.39;28.66;100601.31;5055529;28;1128;-31
2022/09/20 04:18:32;;;;;;;;;;;;;;;25.31;28.90;100599.47;5055517;28;1890;-29
2022/09/20 04:21:06;;;;;;;;;;;;;;;24.77;29.18;100601.78;5040684;28;1321;-32
2022/09/20 04:23:38;;;;;;;;;;;;;;;24.80;29.13;100608.66;5053451;28;1060;-31
2022/09/20 04:26:04;;;;;;;;;;;;;;;24.32;29.28;100606.69;5053972;28;1065;-31
2022/09/20 04:28:40;;;;;;;;;;;;;;;24.37;29.17;100608.88;5055560;28;1056;-30
2022/09/20 04:31:13;;;;;;;;;;;;;;;24.14;29.27;100613.00;5055244;28;1115;-31
2022/09/20 04:33:42;;;;;;;;;;;;;;;23.88;29.70;100615.81;5054341;28;1037;-30
2022/09/20 04:36:29;;;;;;;;;;;;;;;23.98;29.54;100619.22;5054278;28;2205;-32
2022/09/20 04:39:09;;;;;;;;;;;;;;;23.87;29.58;100622.22;5047339;28;1032;-30
2022/09/20 04:41:37;;;;;;;;;;;;;;;23.56;30.02;100621.78;5035595;28;1167;-31
2022/09/20 04:44:03;;;;;;;;;;;;;;;23.44;30.22;100623.09;5035022;28;1260;-29
2022/09/20 04:46:37;;;;;;;;;;;;;;;23.44;30.15;100621.22;5045422;28;955;-30
2022/09/20 04:49:21;;;;;;;;;;;;;;;23.35;30.32;100630.22;5037608;28;1052;-29
2022/09/20 04:51:53;;;;;;;;;;;;;;;23.20;30.52;100621.94;5043671;28;1195;-29
2022/09/20 04:54:21;;;;;;;;;;;;;;;23.05;30.52;100632.41;5039016;28;1242;-29
2022/09/20 04:56:49;;;;;;;;;;;;;;;22.96;30.82;100631.50;5035132;28;1878;-28
2022/09/20 04:59:38;;;;;;;;;;;;;;;22.98;30.64;100633.03;5047132;28;1195;-29
2022/09/20 05:02:19;;;;;;;;;;;;;;;22.72;31.07;100641.06;5009439;28;1228;-29
2022/09/20 05:05:20;;;;;;;;;;;;;;;22.71;31.16;100632.19;5050517;28;2484;-30
2022/09/20 05:07:48;;;;;;;;;;;;;;;22.42;31.41;100641.28;4990196;28;1375;-30
2022/09/20 05:10:14;;;;;;;;;;;;;;;22.35;31.54;100637.53;5041747;28;1253;-29
2022/09/20 05:12:43;;;;;;;;;;;;;;;22.28;31.67;100637.31;5046623;28;1194;-30
2022/09/20 05:15:19;;;;;;;;;;;;;;;22.32;31.84;100633.31;5046600;28;1151;-30
2022/09/20 05:17:51;;;;;;;;;;;;;;;22.24;32.05;100636.78;5046301;28;1898;-28
2022/09/20 05:20:23;;;;;;;;;;;;;;;22.15;32.23;100629.66;5040593;28;1215;-30
2022/09/20 05:23:06;;;;;;;;;;;;;;;22.07;31.81;100633.09;5052006;28;1151;-30
2022/09/20 05:25:55;;;;;;;;;;;;;;;21.91;32.46;100639.13;5038537;28;1225;-30
2022/09/20 05:28:36;;;;;;;;;;;;;;;21.93;32.28;100634.47;5030963;28;1249;-30
2022/09/20 05:31:10;;;;;;;;;;;;;;;21.80;32.35;100633.97;5038088;28;1136;-30
2022/09/20 05:33:38;;;;;;;;;;;;;;;21.81;32.53;100627.63;5038857;28;1328;-29
2022/09/20 05:36:12;;;;;;;;;;;;;;;21.84;32.14;100628.16;5043292;28;1766;-30
2022/09/20 05:38:58;;;;;;;;;;;;;;;21.81;32.16;100638.31;5037014;28;1977;-32
2022/09/20 05:41:42;;;;;;;;;;;;;;;21.70;32.45;100637.53;5041492;28;1199;-29
2022/09/20 05:44:13;;;;;;;;;;;;;;;22.56;31.57;100641.72;5047457;28;1164;-28
2022/09/20 05:46:58;;;;;;;;;;;;;;;22.89;31.26;100643.88;5040143;28;1160;-31
2022/09/20 05:49:38;;;;;;;;;;;;;;;23.18;31.36;100656.97;5038405;28;1203;-30
2022/09/20 05:52:13;;;;;;;;;;;;;;;23.50;31.13;100649.28;5044466;28;1081;-30
2022/09/20 05:54:44;;;;;;;;;;;;;;;23.71;31.38;100642.63;5048300;28;1064;-30
2022/09/20 05:57:22;;;;;;;;;;;;;;;23.79;31.27;100653.41;5040643;28;1886;-29
2022/09/20 05:59:48;;;;;;;;;;;;;;;23.78;31.54;100651.72;5037944;28;878;-31
2022/09/20 06:02:20;;;;;;;;;;;;;;;24.08;31.74;100654.84;5043601;28;1172;-30
2022/09/20 06:04:45;;;;;;;;;;;;;;;24.04;30.94;100656.16;5044953;28;2424;-29
2022/09/20 06:07:38;;;;;;;;;;;;;;;24.17;30.76;100665.63;5039180;28;1151;-29
2022/09/20 06:10:23;;;;;;;;;;;;;;;24.30;30.87;100663.31;5017696;28;1250;-32
2022/09/20 06:12:54;;;;;;;;;;;;;;;24.24;30.75;100657.75;5051850;28;1087;-30
2022/09/20 06:15:25;;;;;;;;;;;;;;;24.21;30.85;100654.38;5040740;28;1231;-30
2022/09/20 06:17:56;;;;;;;;;;;;;;;24.22;30.72;100663.31;5052517;28;1894;-32
2022/09/20 06:20:25;;;;;;;;;;;;;;;24.42;30.78;100673.75;5043525;28;1251;-30
2022/09/20 06:22:54;;;;;;;;;;;;;;;24.43;30.67;100665.50;5038739;28;1108;-31
2022/09/20 06:25:22;;;;;;;;;;;;;;;24.41;30.38;100664.81;5036176;28;1100;-32
2022/09/20 06:28:06;;;;;;;;;;;;;;;24.45;30.29;100658.13;5036322;28;1171;-30
2022/09/20 06:30:35;;;;;;;;;;;;;;;24.60;30.01;100659.28;5037022;28;1116;-30
2022/09/20 06:33:07;;;;;;;;;;;;;;;24.60;30.04;100668.19;5035627;28;1105;-29
2022/09/20 06:35:34;;;;;;;;;;;;;;;24.53;30.09;100665.34;5036715;28;2491;-33
2022/09/20 06:43:47;;;;;;;;;;;;;;;24.62;29.88;100655.44;5051515;28;1088;-30
2022/09/20 06:46:14;;;;;;;;;;;;;;;24.63;29.90;100654.41;5039934;28;1159;-29
2022/09/20 06:48:39;;;;;;;;;;;;;;;24.63;30.02;100656.25;5040350;28;1333;-32
2022/09/20 06:51:06;;;;;;;;;;;;;;;24.67;29.68;100657.63;5036495;28;1203;-29
2022/09/20 06:53:32;;;;;;;;;;;;;;;24.54;29.55;100652.75;5036461;28;1242;-33
2022/09/20 06:55:57;;;;;;;;;;;;;;;24.76;29.31;100653.91;5045822;28;1306;-29
2022/09/20 06:58:23;;;;;;;;;;;;;;;24.83;28.95;100654.06;5041091;28;1886;-31
2022/09/20 07:00:48;;;;;;;;;;;;;;;24.78;29.04;100646.50;5046868;28;878;-34
2022/09/20 07:03:13;;;;;;;;;;;;;;;24.92;28.69;100657.63;5042869;28;1262;-30
2022/09/20 07:05:39;;;;;;;;;;;;;;;24.73;28.63;100659.63;5043399;28;1823;-29
2022/09/20 07:08:04;;;;;;;;;;;;;;;24.77;28.53;100660.97;5050013;28;1255;-31
2022/09/20 07:10:29;;;;;;;;;;;;;;;24.93;28.40;100660.13;5047124;28;1159;-30
2022/09/20 07:12:55;;;;;;;;;;;;;;;24.87;28.15;100658.09;5040029;28;1003;-29
2022/09/20 07:15:23;;;;;;;;;;;;;;;24.97;27.91;100666.03;5045536;28;1287;-29
2022/09/20 07:17:49;;;;;;;;;;;;;;;25.18;27.85;100659.25;5040030;28;1890;-30
2022/09/20 07:20:15;;;;;;;;;;;;;;;25.33;27.68;100666.59;5036204;28;1401;-30
2022/09/20 07:22:40;;;;;;;;;;;;;;;25.59;27.82;100657.44;5035839;28;1213;-32
2022/09/20 07:25:06;;;;;;;;;;;;;;;25.60;28.02;100659.09;5049605;28;921;-30
2022/09/20 07:27:31;;;;;;;;;;;;;;;25.92;28.00;100670.78;5036037;28;1132;-31
2022/09/20 07:29:56;;;;;;;;;;;;;;;25.89;28.11;100668.44;5035070;28;1187;-29
2022/09/20 07:32:22;;;;;;;;;;;;;;;26.04;28.18;100669.34;5036229;28;1120;-31
2022/09/20 07:34:47;;;;;;;;;;;;;;;26.17;28.28;100668.75;5035624;28;2473;-29
2022/09/20 07:37:12;;;;;;;;;;;;;;;26.13;28.18;100666.59;5046421;28;1957;-31
2022/09/20 07:39:38;;;;;;;;;;;;;;;26.21;29.24;100666.53;5040704;28;1184;-31
2022/09/20 07:42:05;;;;;;;;;;;;;;;26.09;29.36;100668.00;5067461;28;1052;-32
2022/09/20 07:44:30;;;;;;;;;;;;;;;26.02;29.29;100659.78;5035687;28;1132;-33
2022/09/20 07:46:59;;;;;;;;;;;;;;;26.12;29.14;100662.25;5048498;28;1139;-30
2022/09/20 07:49:25;;;;;;;;;;;;;;;26.62;28.64;100661.91;5050172;28;1374;-32
2022/09/20 07:51:51;;;;;;;;;;;;;;;26.81;29.05;100659.72;5050573;28;1155;-32
2022/09/20 07:54:16;;;;;;;;;;;;;;;26.82;29.09;100658.69;5038148;28;1555;-30
2022/09/20 07:56:41;;;;;;;;;;;;;;;26.96;29.04;100655.16;5048378;28;1890;-32
2022/09/20 07:59:08;;;;;;;;;;;;;;;27.05;29.16;100658.66;5049918;28;1069;-33
2022/09/20 08:01:34;;;;;;;;;;;;;;;27.10;29.51;100655.41;5045183;28;884;-31
2022/09/20 08:03:59;;;;;;;;;;;;;;;26.75;30.22;100666.66;5043932;28;1132;-30
2022/09/20 08:06:25;;;;;;;;;;;;;;;26.50;29.29;100669.56;5039774;28;2523;-30
2022/09/20 08:08:51;;;;;;;;;;;;;;;26.64;29.63;100673.34;5042642;28;1200;-30
2022/09/20 08:11:17;;;;;;;;;;;;;;;26.66;28.86;100660.50;5046201;28;1146;-31
2022/09/20 08:13:43;;;;;;;;;;;;;;;26.58;29.39;100668.66;5037888;28;1061;-34
2022/09/20 08:16:17;;;;;;;;;;;;;;;26.64;29.71;100667.97;5036412;28;1171;-31
2022/09/20 08:18:45;;;;;;;;;;;;;;;26.61;29.63;100661.06;5044726;28;1906;-30
2022/09/20 08:21:11;;;;;;;;;;;;;;;26.96;28.16;100668.66;5039038;28;1220;-32
2022/09/20 08:23:37;;;;;;;;;;;;;;;26.47;26.69;100662.69;5042713;28;1092;-37
2022/09/20 08:26:03;;;;;;;;;;;;;;;26.22;23.76;100649.38;5041706;28;1139;-35
2022/09/20 08:28:29;;;;;;;;;;;;;;;25.67;23.96;100646.66;5035035;28;1136;-31
2022/09/20 08:31:05;;;;;;;;;;;;;;;25.22;23.66;100646.28;5035781;28;1100;-32
2022/09/20 08:33:31;;;;;;;;;;;;;;;24.56;24.10;100653.41;5035312;28;1151;-33
2022/09/20 08:35:56;;;;;;;;;;;;;;;24.89;24.20;100653.38;5039034;28;2461;-33
2022/09/20 08:38:26;;;;;;;;;;;;;;;24.99;24.69;100638.94;5038011;28;1973;-36
2022/09/20 08:40:52;;;;;;;;;;;;;;;24.89;24.30;100637.22;5035526;28;1178;-34
2022/09/20 08:43:18;;;;;;;;;;;;;;;24.90;23.76;100648.84;5042971;28;1136;-35
2022/09/20 08:45:43;;;;;;;;;;;;;;;24.79;24.15;100645.47;5062270;28;1206;-32
2022/09/20 08:48:11;;;;;;;;;;;;;;;25.07;23.29;100645.13;5043412;28;1160;-32
2022/09/20 08:50:36;;;;;;;;;;;;;;;25.24;23.59;100653.16;5037934;28;1030;-34
2022/09/20 08:53:04;;;;;;;;;;;;;;;25.08;23.37;100635.22;5037925;28;1156;-34
2022/09/20 08:55:31;;;;;;;;;;;;;;;25.36;24.73;100625.88;5037899;28;1148;-30
2022/09/20 08:57:57;;;;;;;;;;;;;;;26.08;23.14;100624.00;5038747;28;1902;-29
2022/09/20 09:00:28;;;;;;;;;;;;;;;26.62;23.14;100634.91;5041679;28;1140;-29
2022/09/20 09:02:54;;;;;;;;;;;;;;;27.18;23.11;100625.59;5056050;28;1190;-31
2022/09/20 09:05:30;;;;;;;;;;;;;;;27.26;24.51;100628.22;5043009;28;2258;-33
2022/09/20 09:07:55;;;;;;;;;;;;;;;27.31;25.13;100627.63;5049035;28;1030;-31
2022/09/20 09:10:21;;;;;;;;;;;;;;;27.50;26.32;100614.59;5046613;28;1279;-31
2022/09/20 09:12:46;;;;;;;;;;;;;;;27.54;26.69;100615.06;5046642;28;1136;-33
2022/09/20 09:15:20;;;;;;;;;;;;;;;27.57;27.74;100611.97;5040434;28;1218;-34
2022/09/20 09:17:45;;;;;;;;;;;;;;;27.46;27.98;100613.31;5037409;28;1905;-33
2022/09/20 09:20:15;;;;;;;;;;;;;;;27.28;27.21;100590.22;5038114;28;1275;-35
2022/09/20 09:22:41;;;;;;;;;;;;;;;27.00;27.38;100582.75;5038576;28;1132;-30
2022/09/20 09:28:22;;;;;;;;;;;;;;;26.98;27.83;100604.53;5038028;28;1060;-32
2022/09/20 09:30:48;;;;;;;;;;;;;;;27.06;27.92;100598.22;5043414;28;1250;-31
2022/09/20 09:33:13;;;;;;;;;;;;;;;27.12;27.49;100605.59;5054997;28;1512;-30
2022/09/20 09:35:38;;;;;;;;;;;;;;;26.45;27.88;100496.66;5039265;28;2352;-29
2022/09/20 09:38:03;;;;;;;;;;;;;;;27.34;27.95;100615.66;5045112;28;1906;-31
2022/09/20 09:40:30;;;;;;;;;;;;;;;27.38;28.27;100616.94;5047818;28;1316;-33
2022/09/20 09:42:59;;;;;;;;;;;;;;;27.32;28.08;100615.00;5045760;28;1129;-29
2022/09/20 09:45:27;;;;;;;;;;;;;;;27.28;28.10;100611.00;5052150;28;1437;-31
2022/09/20 09:47:53;;;;;;;;;;;;;;;27.21;28.59;100619.00;5045702;28;1076;-29
2022/09/20 09:50:22;;;;;;;;;;;;;;;27.32;28.78;100612.28;5043247;28;885;-31
2022/09/20 09:52:58;;;;;;;;;;;;;;;27.55;28.45;100619.41;5041265;28;1051;-30
2022/09/20 09:55:26;;;;;;;;;;;;;;;27.68;28.27;100613.31;5044551;28;1163;-33
2022/09/20 09:57:59;;;;;;;;;;;;;;;27.18;28.28;100616.66;5036491;28;1955;-31
2022/09/20 10:00:26;;;;;;;;;;;;;;;27.05;28.07;100612.75;5038476;28;1073;-31
2022/09/20 10:02:54;;;;;;;;;;;;;;;27.11;27.74;100612.00;5039949;28;1180;-36
2022/09/20 10:05:30;;;;;;;;;;;;;;;27.25;26.37;100620.28;5046157;28;2381;-32
2022/09/20 10:08:14;;;;;;;;;;;;;;;27.41;26.40;100615.72;5041750;28;1141;-33
2022/09/20 10:10:59;;;;;;;;;;;;;;;27.48;25.83;100617.47;5052115;28;1324;-31
2022/09/20 10:13:33;;;;;;;;;;;;;;;26.98;22.12;100611.78;5043001;28;1136;-30
2022/09/20 10:16:18;;;;;;;;;;;;;;;26.96;21.35;100614.66;5039583;28;1341;-33
2022/09/20 10:19:02;;;;;;;;;;;;;;;26.73;21.83;100610.19;5036932;28;1897;-31
2022/09/20 10:21:40;;;;;;;;;;;;;;;26.75;19.56;100608.16;4998240;28;1112;-33
2022/09/20 10:27:26;;;;;;;;;;;;;;;26.94;19.04;100595.16;5865194;23;7042;-34
2022/09/20 10:30:06;;;;;;;;;;;;;;;26.89;19.46;100600.25;5013329;28;2443;-33
2022/09/20 10:32:38;;;;;;;;;;;;;;;26.83;20.70;100595.56;5007877;28;2065;-33
2022/09/20 10:35:33;;;;;;;;;;;;;;;26.66;20.60;100598.44;5016588;28;1884;-33
2022/09/20 10:38:15;;;;;;;;;;;;;;;26.64;20.58;100592.41;4997439;28;1903;-33
2022/09/20 10:43:54;;;;;;;;;;;;;;;26.88;20.04;100582.38;5016274;28;1810;-34
2022/09/20 10:46:19;;;;;;;;;;;;;;;26.93;21.00;100579.97;5008906;28;1398;-34
2022/09/20 10:48:49;;;;;;;;;;;;;;;26.93;20.50;100582.66;5016971;28;1108;-35
2022/09/20 10:51:24;;;;;;;;;;;;;;;26.92;20.35;100581.00;5017624;28;1052;-35
2022/09/20 10:53:49;;;;;;;;;;;;;;;26.81;20.61;100576.88;5016666;28;1348;-33
2022/09/20 10:56:25;;;;;;;;;;;;;;;26.40;20.48;100576.28;5017132;28;1436;-33
2022/09/20 10:59:09;;;;;;;;;;;;;;;26.90;20.37;100569.53;5000298;28;1897;-35
2022/09/20 11:01:40;;;;;;;;;;;;;;;27.07;20.52;100580.19;5015712;28;1140;-34
2022/09/20 11:04:26;;;;;;;;;;;;;;;26.87;20.50;100584.25;5009054;28;1101;-34
2022/09/20 11:06:51;;;;;;;;;;;;;;;26.85;20.69;100577.34;5014304;28;1235;-35
2022/09/20 11:09:18;;;;;;;;;;;;;;;26.61;20.20;100577.41;5013597;28;1218;-37
2022/09/20 11:11:48;;;;;;;;;;;;;;;26.39;20.17;100579.97;5014967;28;1192;-37
2022/09/20 11:14:28;;;;;;;;;;;;;;;26.21;20.23;100576.75;5014688;28;2420;-37
2022/09/20 11:16:55;;;;;;;;;;;;;;;26.43;20.33;100577.75;5002230;28;1894;-36
2022/09/20 11:19:26;;;;;;;;;;;;;;;26.44;20.28;100584.00;5016878;28;1131;-38
2022/09/20 11:21:53;;;;;;;;;;;;;;;26.25;20.26;100580.75;5000975;28;1133;-38
2022/09/20 11:24:35;;;;;;;;;;;;;;;26.73;20.59;100574.25;5014340;28;1199;-38
2022/09/20 11:27:17;;;;;;;;;;;;;;;26.71;20.71;100573.63;5005856;28;1153;-37
2022/09/20 11:29:59;;;;;;;;;;;;;;;26.90;20.53;100574.94;5014174;28;1055;-38
2022/09/20 11:32:27;;;;;;;;;;;;;;;26.92;20.14;100580.16;5009725;28;1196;-37
2022/09/20 11:34:54;;;;;;;;;;;;;;;27.06;20.04;100579.34;5009953;28;1551;-38
2022/09/20 11:37:19;;;;;;;;;;;;;;;26.76;19.65;100569.34;5010203;28;1902;-37
2022/09/20 11:39:50;;;;;;;;;;;;;;;26.75;19.95;100564.13;5012129;28;1081;-36
2022/09/20 11:42:17;;;;;;;;;;;;;;;26.64;19.90;100563.56;5007427;28;1287;-35
2022/09/20 11:44:43;;;;;;;;;;;;;;;26.93;19.91;100571.00;5007430;28;1792;-36
2022/09/20 11:47:11;;;;;;;;;;;;;;;27.01;20.18;100570.91;5016272;28;1254;-36
2022/09/20 11:50:16;;;;;;;;;;;;;;;26.45;19.59;100586.50;5014729;28;1164;-38
2022/09/20 11:52:51;;;;;;;;;;;;;;;26.69;21.69;100572.97;4936197;29;1281;-35
2022/09/20 11:55:17;;;;;;;;;;;;;;;26.63;20.83;100566.44;4936118;29;1324;-37
2022/09/20 11:57:43;;;;;;;;;;;;;;;26.65;20.25;100567.09;4971820;28;1953;-37
2022/09/20 12:00:09;;;;;;;;;;;;;;;26.67;19.94;100567.75;5015651;28;1160;-37
2022/09/20 12:02:37;;;;;;;;;;;;;;;26.81;20.44;100567.97;5008765;28;1235;-37
2022/09/20 12:05:03;;;;;;;;;;;;;;;26.96;20.12;100571.47;5003559;28;946;-37
2022/09/20 12:07:31;;;;;;;;;;;;;;;26.94;19.93;100573.56;5010480;28;1519;-36
2022/09/20 12:10:09;;;;;;;;;;;;;;;27.08;19.69;100544.03;4999175;28;1196;-36
2022/09/20 12:12:34;;;;;;;;;;;;;;;27.17;20.36;100555.59;5010529;28;1690;-37
2022/09/20 12:15:01;;;;;;;;;;;;;;;27.16;19.88;100562.03;5005378;28;1298;-35
2022/09/20 12:17:44;;;;;;;;;;;;;;;27.09;19.81;100556.53;5015132;28;1894;-35
2022/09/20 12:20:42;;;;;;;;;;;;;;;27.04;19.60;100565.22;5016337;28;1132;-38
2022/09/20 12:23:26;;;;;;;;;;;;;;;27.09;19.69;100567.34;4992585;28;1454;-37
2022/09/20 12:25:59;;;;;;;;;;;;;;;27.05;19.40;100566.88;5017613;28;1191;-36
2022/09/20 12:28:43;;;;;;;;;;;;;;;26.62;19.72;100560.22;5018090;28;1239;-35
2022/09/20 12:31:18;;;;;;;;;;;;;;;26.45;19.75;100570.31;5029935;28;1176;-36
2022/09/20 12:34:02;;;;;;;;;;;;;;;26.87;19.93;100564.50;5020367;28;1217;-39
2022/09/20 12:36:28;;;;;;;;;;;;;;;27.09;20.10;100562.75;5013773;28;1147;-38
2022/09/20 12:39:01;;;;;;;;;;;;;;;27.09;19.28;100561.94;5003644;28;1915;-39
2022/09/20 12:41:26;;;;;;;;;;;;;;;26.98;19.30;100565.91;5001062;28;1234;-37
2022/09/20 12:43:53;;;;;;;;;;;;;;;27.25;19.19;100563.59;5017043;28;2417;-35
2022/09/20 12:46:31;;;;;;;;;;;;;;;27.50;19.30;100560.56;5019706;28;1151;-42
2022/09/20 12:52:49;;;;;;;;;;;;;;;27.66;19.43;100559.47;5009848;28;989;-41
2022/09/20 12:54:51;;;;;;;;;;;;;;;27.70;20.85;100570.78;5014077;28;1139;-43
2022/09/20 12:57:17;;;;;;;;;;;;;;;27.71;20.70;100559.78;5015362;28;1911;-45
2022/09/20 12:59:43;;;;;;;;;;;;;;;27.99;20.42;100563.59;5011783;28;1233;-45
2022/09/20 13:02:27;;;;;;;;;;;;;;;27.97;20.26;100560.25;5019510;28;1005;-43
2022/09/20 13:04:56;;;;;;;;;;;;;;;27.96;20.12;100562.09;5015570;28;1186;-41
2022/09/20 13:07:25;;;;;;;;;;;;;;;27.94;20.61;100564.19;5019199;28;1008;-42
2022/09/20 13:09:51;;;;;;;;;;;;;;;28.05;20.94;100567.38;5006246;28;1493;-42
2022/09/20 13:12:16;;;;;;;;;;;;;;;27.91;20.78;100571.84;5016449;28;1231;-42
2022/09/20 13:14:42;;;;;;;;;;;;;;;27.71;20.97;100564.38;5009369;28;2516;-42
2022/09/20 13:17:26;;;;;;;;;;;;;;;27.72;21.30;100561.47;5018746;28;1968;-42
2022/09/20 13:19:51;;;;;;;;;;;;;;;27.83;21.05;100557.41;4998402;28;1113;-41
2022/09/20 13:22:19;;;;;;;;;;;;;;;27.74;21.77;100553.97;5012407;28;1175;-41
2022/09/20 13:24:45;;;;;;;;;;;;;;;27.86;21.94;100558.91;5017921;28;1235;-43
2022/09/20 13:27:12;;;;;;;;;;;;;;;28.03;21.44;100564.88;5018614;28;1115;-43
2022/09/20 13:29:38;;;;;;;;;;;;;;;28.07;21.31;100563.47;5016926;28;1203;-41
2022/09/20 13:32:16;;;;;;;;;;;;;;;27.96;21.47;100553.16;5019190;28;1060;-43